createdAt,value
2022-12-22T12:34:02.860Z,90.63
2022-12-22T12:37:27.532Z,87.13
2022-12-22T12:40:45.414Z,83.22
2022-12-22T12:43:17.115Z,65.47
2022-12-22T12:45:47.228Z,86.30
2022-12-22T12:48:27.115Z,85.07
2022-12-22T12:50:57.505Z,86.10
2022-12-22T12:53:32.707Z,88.68
2022-12-22T12:56:08.844Z,88.05
2022-12-22T12:58:41.379Z,88.43
2022-12-22T13:01:30.509Z,93.70
2022-12-22T13:04:05.041Z,98.43
2022-12-22T13:06:52.062Z,94.35
2022-12-22T13:12:37.401Z,92.95
2022-12-22T13:15:40.908Z,95.63
2022-12-22T13:18:40.744Z,93.72
2022-12-22T13:24:32.470Z,85.18
2022-12-22T13:27:10.534Z,89.68
2022-12-22T13:30:06.808Z,101.63
2022-12-22T13:32:49.890Z,100.57
2022-12-22T13:35:47.182Z,101.57
2022-12-22T13:38:46.234Z,106.70
2022-12-22T13:41:26.868Z,109.80
2022-12-22T13:44:11.344Z,109.43
2022-12-22T13:46:39.906Z,105.93
2022-12-22T13:49:36.188Z,109.60
2022-12-22T13:52:19.365Z,105.93
2022-12-22T13:54:50.476Z,109.18
2022-12-22T13:57:25.613Z,108.05
2022-12-22T14:00:01.128Z,111.20
2022-12-22T14:02:51.911Z,107.82
2022-12-22T14:05:22.015Z,118.40
2022-12-22T14:08:11.560Z,118.82
2022-12-22T14:10:46.907Z,100.43
2022-12-22T14:13:33.641Z,101.35
2022-12-22T14:16:10.357Z,100.20
2022-12-22T14:18:40.306Z,96.30
2022-12-22T14:21:11.197Z,99.70
2022-12-22T14:23:53.216Z,157.50
2022-12-22T14:26:30.103Z,153.73
2022-12-22T14:29:03.076Z,148.15
2022-12-22T14:31:34.326Z,113.65
2022-12-22T14:34:08.613Z,118.25
2022-12-22T14:36:53.958Z,128.20
2022-12-22T14:39:36.423Z,114.07
2022-12-22T14:42:16.915Z,113.63
2022-12-22T14:44:49.237Z,120.18
2022-12-22T14:47:31.779Z,119.95
2022-12-22T14:50:17.132Z,125.00
2022-12-22T14:52:56.631Z,112.75
2022-12-22T14:55:40.655Z,105.18
2022-12-22T14:58:34.350Z,83.10
2022-12-22T15:01:29.637Z,111.45
2022-12-22T15:04:20.471Z,99.90
2022-12-22T15:06:50.896Z,110.00
2022-12-22T15:09:39.729Z,109.15
2022-12-22T15:12:20.855Z,108.10
2022-12-22T15:14:53.020Z,106.43
2022-12-22T15:17:23.634Z,105.07
2022-12-22T15:22:45.242Z,99.93
2022-12-22T15:25:32.901Z,100.88
2022-12-22T15:28:00.531Z,97.57
2022-12-22T15:30:30.398Z,102.05
2022-12-22T15:33:00.683Z,104.85
2022-12-22T15:35:37.177Z,101.57
2022-12-22T15:38:21.598Z,99.60
2022-12-22T15:40:53.346Z,100.45
2022-12-22T15:43:55.562Z,98.35
2022-12-22T15:46:34.734Z,98.93
2022-12-22T15:49:07.424Z,104.07
2022-12-22T15:51:43.160Z,105.07
2022-12-22T15:54:24.773Z,101.57
2022-12-22T15:56:56.435Z,100.72
2022-12-22T15:59:30.322Z,109.40
2022-12-22T16:02:02.654Z,106.03
2022-12-22T16:04:35.442Z,102.68
2022-12-22T16:07:08.216Z,75.97
2022-12-22T16:09:46.197Z,103.82
2022-12-22T16:12:18.475Z,105.25
2022-12-22T16:14:50.937Z,105.72
2022-12-22T16:17:25.383Z,108.60
2022-12-22T16:19:56.134Z,106.72
2022-12-22T16:22:38.973Z,108.80
2022-12-22T16:25:19.113Z,111.40
2022-12-22T16:27:49.696Z,114.93
2022-12-22T16:30:26.453Z,112.38
2022-12-22T16:32:57.086Z,113.65
2022-12-22T16:35:29.483Z,118.35
2022-12-22T16:38:02.482Z,118.13
2022-12-22T16:40:34.860Z,117.25
2022-12-22T16:46:16.074Z,116.75
2022-12-22T16:49:10.383Z,118.90
2022-12-22T16:51:46.586Z,116.45
2022-12-22T16:54:18.721Z,121.97
2022-12-22T16:56:51.748Z,115.60
2022-12-22T16:59:22.182Z,122.47
2022-12-22T17:01:58.032Z,121.43
2022-12-22T17:04:32.712Z,120.93
2022-12-22T17:07:04.363Z,116.70
2022-12-22T17:09:44.764Z,119.38
2022-12-22T17:12:27.010Z,119.50
2022-12-22T17:14:56.880Z,117.45
2022-12-22T17:17:32.878Z,135.85
2022-12-22T17:20:06.361Z,128.15
2022-12-22T17:22:36.901Z,118.05
2022-12-22T17:25:11.832Z,119.68
2022-12-22T17:27:40.627Z,122.32
2022-12-22T17:30:24.354Z,119.70
2022-12-22T17:33:00.820Z,121.35
2022-12-22T17:35:33.987Z,123.20
2022-12-22T17:38:07.775Z,124.65
2022-12-22T17:40:39.028Z,119.32
2022-12-22T17:43:27.668Z,123.60
2022-12-22T17:45:57.430Z,126.22
2022-12-22T17:48:48.701Z,128.15
2022-12-22T17:51:24.176Z,128.38
2022-12-22T17:54:07.877Z,126.90
2022-12-22T17:56:37.053Z,121.35
2022-12-22T17:59:05.631Z,123.07
2022-12-22T18:01:42.361Z,125.35
2022-12-22T18:04:11.689Z,135.93
2022-12-22T18:06:42.851Z,124.22
2022-12-22T18:09:31.760Z,123.53
2022-12-22T18:12:02.084Z,118.22
2022-12-22T18:14:34.168Z,124.70
2022-12-22T18:17:04.579Z,121.97
2022-12-22T18:19:35.020Z,122.15
2022-12-22T18:22:06.542Z,121.63
2022-12-22T18:24:38.843Z,120.43
2022-12-22T18:27:14.834Z,122.22
2022-12-22T18:29:46.170Z,122.68
2022-12-22T18:32:25.478Z,120.45
2022-12-22T18:35:00.284Z,121.00
2022-12-22T18:37:34.687Z,119.07
2022-12-22T18:40:06.179Z,119.60
2022-12-22T18:42:37.372Z,119.57
2022-12-22T18:45:07.967Z,121.15
2022-12-22T18:47:36.230Z,119.82
2022-12-22T18:50:18.374Z,120.00
2022-12-22T18:52:59.727Z,121.32
2022-12-22T18:55:36.004Z,121.85
2022-12-22T18:58:06.606Z,120.07
2022-12-22T19:01:01.746Z,120.97
2022-12-22T19:03:32.323Z,123.45
2022-12-22T19:06:05.414Z,118.45
2022-12-22T19:08:45.345Z,122.28
2022-12-22T19:11:17.715Z,121.22
2022-12-22T19:14:10.459Z,121.72
2022-12-22T19:16:41.254Z,129.18
2022-12-22T19:19:30.345Z,121.43
2022-12-22T19:22:14.123Z,123.13
2022-12-22T19:24:49.524Z,123.30
2022-12-22T19:27:38.870Z,120.72
2022-12-22T19:30:15.887Z,118.28
2022-12-22T19:32:49.029Z,117.40
2022-12-22T19:35:30.788Z,121.05
2022-12-22T19:38:06.877Z,115.90
2022-12-22T19:40:42.323Z,132.63
2022-12-22T19:43:13.324Z,125.28
2022-12-22T19:45:52.206Z,125.93
2022-12-22T19:48:31.042Z,121.60
2022-12-22T19:51:01.519Z,111.38
2022-12-22T19:53:31.221Z,85.25
2022-12-22T19:56:03.519Z,74.80
2022-12-22T19:58:41.380Z,108.13
2022-12-22T20:01:12.948Z,97.85
2022-12-22T20:03:40.864Z,101.47
2022-12-22T20:06:12.530Z,97.35
2022-12-22T20:08:46.190Z,100.13
2022-12-22T20:11:21.254Z,93.88
2022-12-22T20:13:50.895Z,83.80
2022-12-22T20:16:24.339Z,93.47
2022-12-22T20:18:56.283Z,96.43
2022-12-22T20:21:27.655Z,89.70
2022-12-22T20:24:02.310Z,82.05
2022-12-22T20:29:07.815Z,86.72
2022-12-22T20:31:42.190Z,90.95
2022-12-22T20:36:38.949Z,82.70
2022-12-22T20:39:14.742Z,91.28
2022-12-22T20:41:50.484Z,88.97
2022-12-22T20:44:32.568Z,88.45
2022-12-22T20:47:06.513Z,87.43
2022-12-22T20:49:37.183Z,88.07
2022-12-22T20:52:14.536Z,93.47
2022-12-22T20:54:42.292Z,93.88
2022-12-22T21:00:03.744Z,87.78
2022-12-22T21:02:34.558Z,78.80
2022-12-22T21:05:07.966Z,76.40
2022-12-22T21:07:36.870Z,71.93
2022-12-22T21:10:08.980Z,67.00
2022-12-22T21:12:38.609Z,61.38
2022-12-22T21:15:09.903Z,59.20
2022-12-22T21:17:43.342Z,58.90
2022-12-22T21:20:23.601Z,58.25
2022-12-22T21:23:04.041Z,64.18
2022-12-22T21:25:32.530Z,57.97
2022-12-22T21:28:05.489Z,56.08
2022-12-22T21:30:33.992Z,66.38
2022-12-22T21:33:04.340Z,77.47
2022-12-22T21:35:38.619Z,77.90
2022-12-22T21:38:16.497Z,79.88
2022-12-22T21:40:49.919Z,81.75
2022-12-22T21:43:18.143Z,78.45
2022-12-22T21:45:51.530Z,76.15
2022-12-22T21:48:23.092Z,77.10
2022-12-22T21:50:50.850Z,80.32
2022-12-22T21:53:22.900Z,82.00
2022-12-22T21:55:51.748Z,84.32
2022-12-22T21:58:22.835Z,81.25
2022-12-22T22:00:50.942Z,82.05
2022-12-22T22:03:22.240Z,82.20
2022-12-22T22:05:52.156Z,79.20
2022-12-22T22:08:22.441Z,69.75
2022-12-22T22:10:51.009Z,69.38
2022-12-22T22:13:21.236Z,73.20
2022-12-22T22:15:49.444Z,73.95
2022-12-22T22:18:19.470Z,69.70
2022-12-22T22:20:51.505Z,72.50
2022-12-22T22:23:20.970Z,70.63
2022-12-22T22:25:57.336Z,67.05
2022-12-22T22:28:38.596Z,74.88
2022-12-22T22:31:13.892Z,81.78
2022-12-22T22:33:44.507Z,82.25
2022-12-22T22:36:12.075Z,88.05
2022-12-22T22:38:42.495Z,84.32
2022-12-22T22:41:15.152Z,87.05
2022-12-22T22:43:46.560Z,89.72
2022-12-22T22:46:20.535Z,90.22
2022-12-22T22:48:49.008Z,88.03
2022-12-22T22:51:19.414Z,90.13
2022-12-22T22:56:34.826Z,84.63
2022-12-22T22:59:06.538Z,81.30
2022-12-22T23:01:37.906Z,80.97
2022-12-22T23:04:10.509Z,84.03
2022-12-22T23:06:46.392Z,83.47
2022-12-22T23:09:15.081Z,83.13
2022-12-22T23:11:46.533Z,84.43
2022-12-22T23:14:13.891Z,92.32
2022-12-22T23:16:47.602Z,88.68
2022-12-22T23:22:05.039Z,99.97
2022-12-22T23:24:35.973Z,89.70
2022-12-22T23:27:04.588Z,83.55
2022-12-22T23:29:34.985Z,82.28
2022-12-22T23:32:04.909Z,84.20
2022-12-22T23:34:35.467Z,78.03
2022-12-22T23:37:05.085Z,76.80
2022-12-22T23:39:41.117Z,68.43
2022-12-22T23:42:12.064Z,67.45
2022-12-22T23:44:40.993Z,69.63
2022-12-22T23:47:10.295Z,76.07
2022-12-22T23:49:41.807Z,80.07
2022-12-22T23:52:12.563Z,84.50
2022-12-22T23:54:45.554Z,87.15
2022-12-22T23:57:15.240Z,77.45
2022-12-22T23:59:49.226Z,76.70
